sensor_id;sensor_type;location;lat;lon;timestamp;P1;durP1;ratioP1;P2;durP2;ratioP2
25982;SDS011;13773;48.868;10.730;2023-06-14T00:01:25;3.70;;;3.00;;
25982;SDS011;13773;48.868;10.730;2023-06-14T00:03:51;4.37;;;3.10;;
25982;SDS011;13773;48.868;10.730;2023-06-14T00:06:17;4.47;;;3.17;;
25982;SDS011;13773;48.868;10.730;2023-06-14T00:08:43;6.10;;;3.50;;
25982;SDS011;13773;48.868;10.730;2023-06-14T00:11:08;4.33;;;3.23;;
25982;SDS011;13773;48.868;10.730;2023-06-14T00:13:34;3.43;;;2.77;;
25982;SDS011;13773;48.868;10.730;2023-06-14T00:16:00;3.33;;;3.03;;
25982;SDS011;13773;48.868;10.730;2023-06-14T00:18:28;6.07;;;3.20;;
25982;SDS011;13773;48.868;10.730;2023-06-14T00:20:55;6.97;;;3.50;;
25982;SDS011;13773;48.868;10.730;2023-06-14T00:23:21;4.50;;;3.17;;
25982;SDS011;13773;48.868;10.730;2023-06-14T00:25:51;3.83;;;3.07;;
25982;SDS011;13773;48.868;10.730;2023-06-14T00:28:17;3.73;;;3.20;;
25982;SDS011;13773;48.868;10.730;2023-06-14T00:30:43;4.50;;;3.30;;
25982;SDS011;13773;48.868;10.730;2023-06-14T00:33:11;4.30;;;2.93;;
25982;SDS011;13773;48.868;10.730;2023-06-14T00:35:37;4.37;;;3.70;;
25982;SDS011;13773;48.868;10.730;2023-06-14T00:38:03;4.60;;;3.37;;
25982;SDS011;13773;48.868;10.730;2023-06-14T00:40:29;4.93;;;2.90;;
25982;SDS011;13773;48.868;10.730;2023-06-14T00:42:54;3.57;;;2.80;;
25982;SDS011;13773;48.868;10.730;2023-06-14T00:45:20;4.40;;;3.10;;
25982;SDS011;13773;48.868;10.730;2023-06-14T00:47:46;9.13;;;3.30;;
25982;SDS011;13773;48.868;10.730;2023-06-14T00:50:12;5.27;;;3.53;;
25982;SDS011;13773;48.868;10.730;2023-06-14T00:52:38;4.60;;;3.20;;
25982;SDS011;13773;48.868;10.730;2023-06-14T00:55:05;4.23;;;2.97;;
25982;SDS011;13773;48.868;10.730;2023-06-14T00:57:31;3.27;;;2.97;;
25982;SDS011;13773;48.868;10.730;2023-06-14T00:59:57;3.80;;;3.00;;
25982;SDS011;13773;48.868;10.730;2023-06-14T01:02:23;4.00;;;3.03;;
25982;SDS011;13773;48.868;10.730;2023-06-14T01:04:51;4.67;;;2.73;;
25982;SDS011;13773;48.868;10.730;2023-06-14T01:13:48;3.40;;;3.10;;
25982;SDS011;13773;48.868;10.730;2023-06-14T01:15:52;5.57;;;5.03;;
25982;SDS011;13773;48.868;10.730;2023-06-14T01:18:19;6.23;;;5.30;;
25982;SDS011;13773;48.868;10.730;2023-06-14T01:20:45;5.73;;;4.73;;
25982;SDS011;13773;48.868;10.730;2023-06-14T01:23:19;9.53;;;5.60;;
25982;SDS011;13773;48.868;10.730;2023-06-14T01:25:45;6.43;;;5.50;;
25982;SDS011;13773;48.868;10.730;2023-06-14T01:28:12;7.33;;;5.40;;
25982;SDS011;13773;48.868;10.730;2023-06-14T01:30:42;7.27;;;5.10;;
25982;SDS011;13773;48.868;10.730;2023-06-14T01:33:13;4.97;;;4.07;;
25982;SDS011;13773;48.868;10.730;2023-06-14T01:35:44;5.93;;;4.60;;
25982;SDS011;13773;48.868;10.730;2023-06-14T01:38:10;6.77;;;4.87;;
25982;SDS011;13773;48.868;10.730;2023-06-14T01:40:38;4.70;;;4.20;;
25982;SDS011;13773;48.868;10.730;2023-06-14T01:43:05;5.00;;;3.90;;
25982;SDS011;13773;48.868;10.730;2023-06-14T01:45:32;5.03;;;3.80;;
25982;SDS011;13773;48.868;10.730;2023-06-14T01:47:59;6.27;;;4.17;;
25982;SDS011;13773;48.868;10.730;2023-06-14T01:50:32;7.37;;;4.43;;
25982;SDS011;13773;48.868;10.730;2023-06-14T01:52:57;5.53;;;4.60;;
25982;SDS011;13773;48.868;10.730;2023-06-14T01:55:23;5.93;;;4.47;;
25982;SDS011;13773;48.868;10.730;2023-06-14T01:57:52;5.70;;;4.50;;
25982;SDS011;13773;48.868;10.730;2023-06-14T02:00:19;7.03;;;4.63;;
25982;SDS011;13773;48.868;10.730;2023-06-14T02:02:46;6.00;;;4.60;;
25982;SDS011;13773;48.868;10.730;2023-06-14T02:05:12;7.70;;;4.77;;
25982;SDS011;13773;48.868;10.730;2023-06-14T02:07:38;5.83;;;4.47;;
25982;SDS011;13773;48.868;10.730;2023-06-14T02:10:04;5.30;;;4.03;;
25982;SDS011;13773;48.868;10.730;2023-06-14T02:12:30;5.50;;;4.57;;
25982;SDS011;13773;48.868;10.730;2023-06-14T02:14:56;7.33;;;4.80;;
25982;SDS011;13773;48.868;10.730;2023-06-14T02:17:23;5.23;;;3.73;;
25982;SDS011;13773;48.868;10.730;2023-06-14T02:19:49;5.07;;;3.60;;
25982;SDS011;13773;48.868;10.730;2023-06-14T02:22:15;7.70;;;4.20;;
25982;SDS011;13773;48.868;10.730;2023-06-14T02:24:42;4.40;;;3.57;;
25982;SDS011;13773;48.868;10.730;2023-06-14T02:27:08;3.90;;;3.50;;
25982;SDS011;13773;48.868;10.730;2023-06-14T02:29:35;4.53;;;3.43;;
25982;SDS011;13773;48.868;10.730;2023-06-14T02:32:01;3.73;;;3.43;;
25982;SDS011;13773;48.868;10.730;2023-06-14T02:34:27;7.43;;;3.80;;
25982;SDS011;13773;48.868;10.730;2023-06-14T02:36:53;5.63;;;4.13;;
25982;SDS011;13773;48.868;10.730;2023-06-14T02:39:20;4.57;;;3.47;;
25982;SDS011;13773;48.868;10.730;2023-06-14T02:41:48;4.73;;;3.90;;
25982;SDS011;13773;48.868;10.730;2023-06-14T02:44:15;5.20;;;4.10;;
25982;SDS011;13773;48.868;10.730;2023-06-14T02:46:42;6.97;;;5.20;;
25982;SDS011;13773;48.868;10.730;2023-06-14T02:49:09;9.87;;;5.83;;
25982;SDS011;13773;48.868;10.730;2023-06-14T02:51:35;7.00;;;5.50;;
25982;SDS011;13773;48.868;10.730;2023-06-14T02:54:01;7.10;;;5.40;;
25982;SDS011;13773;48.868;10.730;2023-06-14T02:56:26;5.80;;;5.20;;
25982;SDS011;13773;48.868;10.730;2023-06-14T02:58:53;7.50;;;5.20;;
25982;SDS011;13773;48.868;10.730;2023-06-14T03:01:18;6.47;;;5.83;;
25982;SDS011;13773;48.868;10.730;2023-06-14T03:03:45;8.10;;;5.90;;
25982;SDS011;13773;48.868;10.730;2023-06-14T03:06:11;6.20;;;5.50;;
25982;SDS011;13773;48.868;10.730;2023-06-14T03:08:39;7.03;;;5.83;;
25982;SDS011;13773;48.868;10.730;2023-06-14T03:11:06;6.63;;;5.77;;
25982;SDS011;13773;48.868;10.730;2023-06-14T03:13:34;8.47;;;5.57;;
25982;SDS011;13773;48.868;10.730;2023-06-14T03:16:00;6.97;;;5.90;;
25982;SDS011;13773;48.868;10.730;2023-06-14T03:18:29;6.00;;;5.07;;
25982;SDS011;13773;48.868;10.730;2023-06-14T03:20:56;7.57;;;5.67;;
25982;SDS011;13773;48.868;10.730;2023-06-14T03:23:23;8.77;;;5.30;;
25982;SDS011;13773;48.868;10.730;2023-06-14T03:25:50;6.20;;;5.60;;
25982;SDS011;13773;48.868;10.730;2023-06-14T03:28:16;7.57;;;6.33;;
25982;SDS011;13773;48.868;10.730;2023-06-14T03:30:42;6.97;;;5.77;;
25982;SDS011;13773;48.868;10.730;2023-06-14T03:33:08;6.67;;;5.97;;
25982;SDS011;13773;48.868;10.730;2023-06-14T03:35:34;7.97;;;6.60;;
25982;SDS011;13773;48.868;10.730;2023-06-14T03:38:00;6.20;;;5.53;;
25982;SDS011;13773;48.868;10.730;2023-06-14T03:40:25;6.57;;;5.53;;
25982;SDS011;13773;48.868;10.730;2023-06-14T03:42:53;6.13;;;5.53;;
25982;SDS011;13773;48.868;10.730;2023-06-14T03:45:19;6.47;;;5.20;;
25982;SDS011;13773;48.868;10.730;2023-06-14T03:47:46;9.33;;;5.80;;
25982;SDS011;13773;48.868;10.730;2023-06-14T03:50:11;7.53;;;5.30;;
25982;SDS011;13773;48.868;10.730;2023-06-14T03:52:37;7.20;;;5.53;;
25982;SDS011;13773;48.868;10.730;2023-06-14T03:55:03;7.13;;;5.63;;
25982;SDS011;13773;48.868;10.730;2023-06-14T03:57:29;13.90;;;5.63;;
25982;SDS011;13773;48.868;10.730;2023-06-14T03:59:55;5.53;;;4.87;;
25982;SDS011;13773;48.868;10.730;2023-06-14T04:02:21;5.90;;;5.30;;
25982;SDS011;13773;48.868;10.730;2023-06-14T04:04:47;7.40;;;6.00;;
25982;SDS011;13773;48.868;10.730;2023-06-14T04:07:14;7.57;;;6.10;;
25982;SDS011;13773;48.868;10.730;2023-06-14T04:09:40;6.90;;;6.17;;
25982;SDS011;13773;48.868;10.730;2023-06-14T04:12:06;7.83;;;5.80;;
25982;SDS011;13773;48.868;10.730;2023-06-14T04:14:39;7.20;;;5.43;;
25982;SDS011;13773;48.868;10.730;2023-06-14T04:17:05;8.00;;;6.10;;
25982;SDS011;13773;48.868;10.730;2023-06-14T04:19:32;6.83;;;6.13;;
25982;SDS011;13773;48.868;10.730;2023-06-14T04:21:58;7.33;;;5.77;;
25982;SDS011;13773;48.868;10.730;2023-06-14T04:24:27;7.17;;;5.50;;
25982;SDS011;13773;48.868;10.730;2023-06-14T04:27:01;8.50;;;5.60;;
25982;SDS011;13773;48.868;10.730;2023-06-14T04:29:27;7.70;;;5.63;;
25982;SDS011;13773;48.868;10.730;2023-06-14T04:31:54;8.40;;;5.80;;
25982;SDS011;13773;48.868;10.730;2023-06-14T04:34:24;6.93;;;5.20;;
25982;SDS011;13773;48.868;10.730;2023-06-14T04:36:59;6.90;;;5.90;;
25982;SDS011;13773;48.868;10.730;2023-06-14T04:39:27;8.77;;;5.40;;
25982;SDS011;13773;48.868;10.730;2023-06-14T04:41:53;6.17;;;5.57;;
25982;SDS011;13773;48.868;10.730;2023-06-14T04:44:22;7.80;;;6.30;;
25982;SDS011;13773;48.868;10.730;2023-06-14T04:46:56;8.23;;;7.07;;
25982;SDS011;13773;48.868;10.730;2023-06-14T04:49:23;8.13;;;6.90;;
25982;SDS011;13773;48.868;10.730;2023-06-14T04:51:52;7.43;;;6.60;;
25982;SDS011;13773;48.868;10.730;2023-06-14T04:54:22;7.03;;;6.30;;
25982;SDS011;13773;48.868;10.730;2023-06-14T04:56:50;7.63;;;6.83;;
25982;SDS011;13773;48.868;10.730;2023-06-14T04:59:16;8.53;;;6.70;;
25982;SDS011;13773;48.868;10.730;2023-06-14T05:01:42;9.10;;;6.70;;
25982;SDS011;13773;48.868;10.730;2023-06-14T05:04:17;8.27;;;6.90;;
25982;SDS011;13773;48.868;10.730;2023-06-14T05:06:43;8.13;;;7.20;;
25982;SDS011;13773;48.868;10.730;2023-06-14T05:09:10;7.60;;;6.03;;
25982;SDS011;13773;48.868;10.730;2023-06-14T05:11:36;7.53;;;6.30;;
25982;SDS011;13773;48.868;10.730;2023-06-14T05:14:02;8.23;;;6.13;;
25982;SDS011;13773;48.868;10.730;2023-06-14T05:16:28;5.73;;;5.00;;
25982;SDS011;13773;48.868;10.730;2023-06-14T05:18:54;7.67;;;6.10;;
25982;SDS011;13773;48.868;10.730;2023-06-14T05:21:20;7.70;;;5.60;;
25982;SDS011;13773;48.868;10.730;2023-06-14T05:23:46;4.43;;;4.03;;
25982;SDS011;13773;48.868;10.730;2023-06-14T05:26:11;5.60;;;5.10;;
25982;SDS011;13773;48.868;10.730;2023-06-14T05:28:37;6.13;;;5.53;;
25982;SDS011;13773;48.868;10.730;2023-06-14T05:31:03;7.43;;;5.70;;
25982;SDS011;13773;48.868;10.730;2023-06-14T05:33:29;9.20;;;6.07;;
25982;SDS011;13773;48.868;10.730;2023-06-14T05:35:54;8.30;;;5.80;;
25982;SDS011;13773;48.868;10.730;2023-06-14T05:38:20;6.03;;;5.43;;
25982;SDS011;13773;48.868;10.730;2023-06-14T05:40:46;9.02;;;5.65;;
25982;SDS011;13773;48.868;10.730;2023-06-14T05:43:12;6.03;;;4.50;;
25982;SDS011;13773;48.868;10.730;2023-06-14T05:45:38;4.35;;;3.92;;
25982;SDS011;13773;48.868;10.730;2023-06-14T05:48:04;5.60;;;4.57;;
25982;SDS011;13773;48.868;10.730;2023-06-14T05:50:30;5.93;;;3.97;;
25982;SDS011;13773;48.868;10.730;2023-06-14T05:52:55;4.38;;;3.65;;
25982;SDS011;13773;48.868;10.730;2023-06-14T05:55:21;4.85;;;4.03;;
25982;SDS011;13773;48.868;10.730;2023-06-14T05:57:47;5.97;;;4.15;;
25982;SDS011;13773;48.868;10.730;2023-06-14T06:00:13;3.78;;;3.38;;
25982;SDS011;13773;48.868;10.730;2023-06-14T06:02:46;5.50;;;3.83;;
25982;SDS011;13773;48.868;10.730;2023-06-14T06:05:12;4.95;;;4.00;;
25982;SDS011;13773;48.868;10.730;2023-06-14T06:07:38;8.93;;;5.00;;
25982;SDS011;13773;48.868;10.730;2023-06-14T06:10:09;6.53;;;5.28;;
25982;SDS011;13773;48.868;10.730;2023-06-14T06:12:35;7.53;;;4.75;;
25982;SDS011;13773;48.868;10.730;2023-06-14T06:15:01;7.03;;;5.05;;
25982;SDS011;13773;48.868;10.730;2023-06-14T06:17:26;7.07;;;5.35;;
25982;SDS011;13773;48.868;10.730;2023-06-14T06:19:52;7.25;;;4.90;;
25982;SDS011;13773;48.868;10.730;2023-06-14T06:22:20;4.80;;;4.30;;
25982;SDS011;13773;48.868;10.730;2023-06-14T06:24:46;4.85;;;4.38;;
25982;SDS011;13773;48.868;10.730;2023-06-14T06:27:12;4.80;;;4.30;;
25982;SDS011;13773;48.868;10.730;2023-06-14T06:29:37;3.80;;;3.40;;
25982;SDS011;13773;48.868;10.730;2023-06-14T06:32:03;4.80;;;3.60;;
25982;SDS011;13773;48.868;10.730;2023-06-14T06:34:30;4.55;;;4.03;;
25982;SDS011;13773;48.868;10.730;2023-06-14T06:36:55;3.50;;;3.20;;
25982;SDS011;13773;48.868;10.730;2023-06-14T06:39:21;4.63;;;3.55;;
25982;SDS011;13773;48.868;10.730;2023-06-14T06:41:46;4.32;;;3.35;;
25982;SDS011;13773;48.868;10.730;2023-06-14T06:44:12;3.28;;;2.97;;
25982;SDS011;13773;48.868;10.730;2023-06-14T06:46:38;3.85;;;3.10;;
25982;SDS011;13773;48.868;10.730;2023-06-14T06:49:08;3.45;;;3.15;;
25982;SDS011;13773;48.868;10.730;2023-06-14T06:51:37;5.55;;;3.08;;
25982;SDS011;13773;48.868;10.730;2023-06-14T06:54:07;5.38;;;3.53;;
25982;SDS011;13773;48.868;10.730;2023-06-14T06:56:33;5.25;;;3.45;;
25982;SDS011;13773;48.868;10.730;2023-06-14T06:58:59;4.68;;;3.30;;
25982;SDS011;13773;48.868;10.730;2023-06-14T07:01:25;4.15;;;3.20;;
25982;SDS011;13773;48.868;10.730;2023-06-14T07:03:51;3.97;;;3.42;;
25982;SDS011;13773;48.868;10.730;2023-06-14T07:06:17;3.45;;;2.97;;
25982;SDS011;13773;48.868;10.730;2023-06-14T07:08:44;3.58;;;3.28;;
25982;SDS011;13773;48.868;10.730;2023-06-14T07:11:09;3.33;;;3.10;;
25982;SDS011;13773;48.868;10.730;2023-06-14T07:13:36;4.17;;;3.30;;
25982;SDS011;13773;48.868;10.730;2023-06-14T07:16:04;3.73;;;2.97;;
25982;SDS011;13773;48.868;10.730;2023-06-14T07:18:29;5.17;;;3.00;;
25982;SDS011;13773;48.868;10.730;2023-06-14T07:20:55;6.10;;;3.53;;
25982;SDS011;13773;48.868;10.730;2023-06-14T07:23:22;3.20;;;2.90;;
25982;SDS011;13773;48.868;10.730;2023-06-14T07:25:48;3.13;;;2.83;;
25982;SDS011;13773;48.868;10.730;2023-06-14T07:28:14;5.90;;;3.00;;
25982;SDS011;13773;48.868;10.730;2023-06-14T07:30:41;3.40;;;3.13;;
25982;SDS011;13773;48.868;10.730;2023-06-14T07:33:07;3.40;;;3.10;;
25982;SDS011;13773;48.868;10.730;2023-06-14T07:35:33;3.53;;;2.80;;
25982;SDS011;13773;48.868;10.730;2023-06-14T07:37:59;3.30;;;3.00;;
25982;SDS011;13773;48.868;10.730;2023-06-14T07:40:25;4.40;;;3.13;;
25982;SDS011;13773;48.868;10.730;2023-06-14T07:42:51;5.00;;;2.67;;
25982;SDS011;13773;48.868;10.730;2023-06-14T07:45:19;2.97;;;2.77;;
25982;SDS011;13773;48.868;10.730;2023-06-14T07:47:44;3.17;;;2.87;;
25982;SDS011;13773;48.868;10.730;2023-06-14T07:50:10;4.70;;;3.10;;
25982;SDS011;13773;48.868;10.730;2023-06-14T07:52:36;3.30;;;3.00;;
25982;SDS011;13773;48.868;10.730;2023-06-14T07:55:02;3.73;;;2.90;;
25982;SDS011;13773;48.868;10.730;2023-06-14T07:57:28;3.67;;;2.90;;
25982;SDS011;13773;48.868;10.730;2023-06-14T07:59:54;4.63;;;2.83;;
25982;SDS011;13773;48.868;10.730;2023-06-14T08:02:20;4.47;;;2.63;;
25982;SDS011;13773;48.868;10.730;2023-06-14T08:04:45;4.57;;;3.00;;
25982;SDS011;13773;48.868;10.730;2023-06-14T08:07:13;3.17;;;2.83;;
25982;SDS011;13773;48.868;10.730;2023-06-14T08:09:39;5.97;;;3.57;;
25982;SDS011;13773;48.868;10.730;2023-06-14T08:12:06;3.47;;;2.93;;
25982;SDS011;13773;48.868;10.730;2023-06-14T08:14:34;3.00;;;2.63;;
25982;SDS011;13773;48.868;10.730;2023-06-14T08:17:00;4.13;;;3.10;;
25982;SDS011;13773;48.868;10.730;2023-06-14T08:19:26;5.00;;;3.53;;
25982;SDS011;13773;48.868;10.730;2023-06-14T08:21:52;4.40;;;2.83;;
25982;SDS011;13773;48.868;10.730;2023-06-14T08:24:23;2.97;;;2.50;;
25982;SDS011;13773;48.868;10.730;2023-06-14T08:26:49;4.13;;;2.93;;
25982;SDS011;13773;48.868;10.730;2023-06-14T08:29:15;3.93;;;3.10;;
25982;SDS011;13773;48.868;10.730;2023-06-14T08:31:41;3.20;;;2.90;;
25982;SDS011;13773;48.868;10.730;2023-06-14T08:34:07;3.20;;;2.70;;
25982;SDS011;13773;48.868;10.730;2023-06-14T08:36:33;3.30;;;2.90;;
25982;SDS011;13773;48.868;10.730;2023-06-14T08:39:00;3.20;;;2.90;;
25982;SDS011;13773;48.868;10.730;2023-06-14T08:41:25;3.73;;;3.43;;
25982;SDS011;13773;48.868;10.730;2023-06-14T08:43:54;4.07;;;3.10;;
25982;SDS011;13773;48.868;10.730;2023-06-14T08:46:20;5.87;;;3.27;;
25982;SDS011;13773;48.868;10.730;2023-06-14T08:48:47;5.43;;;2.90;;
25982;SDS011;13773;48.868;10.730;2023-06-14T08:51:17;3.47;;;2.77;;
25982;SDS011;13773;48.868;10.730;2023-06-14T08:53:44;3.77;;;2.80;;
25982;SDS011;13773;48.868;10.730;2023-06-14T08:56:11;3.50;;;2.83;;
25982;SDS011;13773;48.868;10.730;2023-06-14T08:58:44;4.73;;;3.37;;
25982;SDS011;13773;48.868;10.730;2023-06-14T09:01:13;3.57;;;3.20;;
25982;SDS011;13773;48.868;10.730;2023-06-14T09:03:41;4.23;;;2.93;;
25982;SDS011;13773;48.868;10.730;2023-06-14T09:06:08;3.43;;;2.87;;
25982;SDS011;13773;48.868;10.730;2023-06-14T09:08:40;3.80;;;2.97;;
25982;SDS011;13773;48.868;10.730;2023-06-14T09:11:10;3.47;;;3.17;;
25982;SDS011;13773;48.868;10.730;2023-06-14T09:13:37;3.00;;;2.70;;
25982;SDS011;13773;48.868;10.730;2023-06-14T09:16:04;3.67;;;3.03;;
25982;SDS011;13773;48.868;10.730;2023-06-14T09:18:49;4.13;;;2.80;;
25982;SDS011;13773;48.868;10.730;2023-06-14T09:21:15;3.70;;;3.00;;
25982;SDS011;13773;48.868;10.730;2023-06-14T09:23:42;5.67;;;2.87;;
25982;SDS011;13773;48.868;10.730;2023-06-14T09:26:19;3.43;;;2.90;;
25982;SDS011;13773;48.868;10.730;2023-06-14T09:28:46;3.33;;;2.80;;
25982;SDS011;13773;48.868;10.730;2023-06-14T09:31:15;3.93;;;3.00;;
25982;SDS011;13773;48.868;10.730;2023-06-14T09:33:42;2.93;;;2.63;;
25982;SDS011;13773;48.868;10.730;2023-06-14T09:38:51;3.43;;;3.13;;
25982;SDS011;13773;48.868;10.730;2023-06-14T09:41:33;3.33;;;3.00;;
25982;SDS011;13773;48.868;10.730;2023-06-14T09:44:00;3.77;;;3.07;;
25982;SDS011;13773;48.868;10.730;2023-06-14T09:46:28;3.50;;;3.17;;
25982;SDS011;13773;48.868;10.730;2023-06-14T09:48:57;2.90;;;2.70;;
25982;SDS011;13773;48.868;10.730;2023-06-14T09:51:23;3.70;;;3.00;;
25982;SDS011;13773;48.868;10.730;2023-06-14T09:53:50;4.87;;;3.10;;
25982;SDS011;13773;48.868;10.730;2023-06-14T09:56:26;3.50;;;3.20;;
25982;SDS011;13773;48.868;10.730;2023-06-14T09:58:57;3.13;;;2.77;;
25982;SDS011;13773;48.868;10.730;2023-06-14T10:01:24;3.20;;;2.90;;
25982;SDS011;13773;48.868;10.730;2023-06-14T10:03:54;3.63;;;3.17;;
25982;SDS011;13773;48.868;10.730;2023-06-14T10:06:23;3.00;;;2.67;;
25982;SDS011;13773;48.868;10.730;2023-06-14T10:08:55;3.93;;;2.97;;
25982;SDS011;13773;48.868;10.730;2023-06-14T10:11:24;3.20;;;2.90;;
25982;SDS011;13773;48.868;10.730;2023-06-14T10:13:51;4.33;;;3.20;;
25982;SDS011;13773;48.868;10.730;2023-06-14T10:24:23;5.33;;;3.17;;
25982;SDS011;13773;48.868;10.730;2023-06-14T10:26:59;4.13;;;3.17;;
25982;SDS011;13773;48.868;10.730;2023-06-14T10:29:26;3.90;;;3.00;;
25982;SDS011;13773;48.868;10.730;2023-06-14T10:31:57;3.77;;;2.97;;
25982;SDS011;13773;48.868;10.730;2023-06-14T10:34:24;4.77;;;2.97;;
25982;SDS011;13773;48.868;10.730;2023-06-14T10:37:01;3.90;;;3.00;;
25982;SDS011;13773;48.868;10.730;2023-06-14T10:39:28;3.90;;;3.27;;
25982;SDS011;13773;48.868;10.730;2023-06-14T10:41:55;5.47;;;3.00;;
25982;SDS011;13773;48.868;10.730;2023-06-14T10:46:48;3.77;;;3.33;;
25982;SDS011;13773;48.868;10.730;2023-06-14T10:49:36;4.30;;;3.30;;
25982;SDS011;13773;48.868;10.730;2023-06-14T10:52:10;4.33;;;2.87;;
25982;SDS011;13773;48.868;10.730;2023-06-14T10:57:26;3.13;;;2.83;;
25982;SDS011;13773;48.868;10.730;2023-06-14T10:59:53;3.60;;;3.10;;
25982;SDS011;13773;48.868;10.730;2023-06-14T11:04:57;5.43;;;3.03;;
25982;SDS011;13773;48.868;10.730;2023-06-14T11:07:35;4.93;;;3.07;;
25982;SDS011;13773;48.868;10.730;2023-06-14T11:13:25;2.97;;;2.67;;
25982;SDS011;13773;48.868;10.730;2023-06-14T11:15:52;4.37;;;3.37;;
25982;SDS011;13773;48.868;10.730;2023-06-14T11:18:19;3.63;;;3.20;;
25982;SDS011;13773;48.868;10.730;2023-06-14T11:20:49;3.90;;;2.93;;
25982;SDS011;13773;48.868;10.730;2023-06-14T11:23:15;3.80;;;2.80;;
25982;SDS011;13773;48.868;10.730;2023-06-14T11:25:40;5.43;;;3.30;;
25982;SDS011;13773;48.868;10.730;2023-06-14T11:28:06;3.50;;;3.20;;
25982;SDS011;13773;48.868;10.730;2023-06-14T11:30:32;3.17;;;2.80;;
25982;SDS011;13773;48.868;10.730;2023-06-14T11:32:58;4.27;;;3.20;;
25982;SDS011;13773;48.868;10.730;2023-06-14T11:35:24;3.27;;;2.90;;
25982;SDS011;13773;48.868;10.730;2023-06-14T11:37:54;3.70;;;3.03;;
25982;SDS011;13773;48.868;10.730;2023-06-14T11:40:25;5.07;;;2.88;;
25982;SDS011;13773;48.868;10.730;2023-06-14T11:42:58;4.90;;;2.90;;
25982;SDS011;13773;48.868;10.730;2023-06-14T11:45:25;3.67;;;3.35;;
25982;SDS011;13773;48.868;10.730;2023-06-14T11:47:53;4.53;;;3.30;;
25982;SDS011;13773;48.868;10.730;2023-06-14T11:50:28;3.55;;;3.22;;
25982;SDS011;13773;48.868;10.730;2023-06-14T11:52:55;4.03;;;3.00;;
25982;SDS011;13773;48.868;10.730;2023-06-14T11:55:28;3.10;;;2.63;;
25982;SDS011;13773;48.868;10.730;2023-06-14T11:57:54;5.15;;;2.83;;
25982;SDS011;13773;48.868;10.730;2023-06-14T12:00:24;5.33;;;3.10;;
25982;SDS011;13773;48.868;10.730;2023-06-14T12:02:53;4.30;;;3.27;;
25982;SDS011;13773;48.868;10.730;2023-06-14T12:05:23;5.83;;;3.03;;
25982;SDS011;13773;48.868;10.730;2023-06-14T12:07:57;3.53;;;3.07;;
25982;SDS011;13773;48.868;10.730;2023-06-14T12:10:28;3.57;;;3.00;;
25982;SDS011;13773;48.868;10.730;2023-06-14T12:12:57;5.13;;;2.97;;
25982;SDS011;13773;48.868;10.730;2023-06-14T12:15:24;3.37;;;2.90;;
25982;SDS011;13773;48.868;10.730;2023-06-14T12:17:53;3.37;;;3.10;;
25982;SDS011;13773;48.868;10.730;2023-06-14T12:20:19;3.83;;;3.17;;
25982;SDS011;13773;48.868;10.730;2023-06-14T12:22:56;4.17;;;3.07;;
25982;SDS011;13773;48.868;10.730;2023-06-14T12:27:54;4.53;;;3.80;;
25982;SDS011;13773;48.868;10.730;2023-06-14T12:30:20;6.77;;;3.60;;
25982;SDS011;13773;48.868;10.730;2023-06-14T12:32:46;3.60;;;3.30;;
25982;SDS011;13773;48.868;10.730;2023-06-14T12:35:12;3.60;;;2.90;;
25982;SDS011;13773;48.868;10.730;2023-06-14T12:37:37;3.33;;;3.03;;
25982;SDS011;13773;48.868;10.730;2023-06-14T12:40:03;3.50;;;3.10;;
25982;SDS011;13773;48.868;10.730;2023-06-14T12:42:32;4.37;;;3.03;;
25982;SDS011;13773;48.868;10.730;2023-06-14T12:45:01;4.03;;;3.30;;
25982;SDS011;13773;48.868;10.730;2023-06-14T12:47:27;7.27;;;3.50;;
25982;SDS011;13773;48.868;10.730;2023-06-14T12:49:53;3.57;;;3.10;;
25982;SDS011;13773;48.868;10.730;2023-06-14T12:52:19;3.87;;;3.30;;
25982;SDS011;13773;48.868;10.730;2023-06-14T12:54:44;3.37;;;3.07;;
25982;SDS011;13773;48.868;10.730;2023-06-14T12:57:10;5.70;;;3.27;;
25982;SDS011;13773;48.868;10.730;2023-06-14T12:59:36;4.30;;;3.30;;
25982;SDS011;13773;48.868;10.730;2023-06-14T13:02:15;4.57;;;3.43;;
25982;SDS011;13773;48.868;10.730;2023-06-14T13:04:42;5.10;;;3.40;;
25982;SDS011;13773;48.868;10.730;2023-06-14T13:07:08;3.58;;;3.25;;
25982;SDS011;13773;48.868;10.730;2023-06-14T13:09:35;3.50;;;2.90;;
25982;SDS011;13773;48.868;10.730;2023-06-14T13:12:01;4.77;;;3.20;;
25982;SDS011;13773;48.868;10.730;2023-06-14T13:14:27;4.20;;;3.40;;
25982;SDS011;13773;48.868;10.730;2023-06-14T13:16:53;5.13;;;3.67;;
25982;SDS011;13773;48.868;10.730;2023-06-14T13:19:19;3.47;;;3.00;;
25982;SDS011;13773;48.868;10.730;2023-06-14T13:21:45;5.13;;;3.30;;
25982;SDS011;13773;48.868;10.730;2023-06-14T13:24:11;17.60;;;3.70;;
25982;SDS011;13773;48.868;10.730;2023-06-14T13:26:37;4.10;;;3.13;;
25982;SDS011;13773;48.868;10.730;2023-06-14T13:29:02;3.72;;;3.10;;
25982;SDS011;13773;48.868;10.730;2023-06-14T13:31:28;3.78;;;2.97;;
25982;SDS011;13773;48.868;10.730;2023-06-14T13:33:54;3.75;;;3.40;;
25982;SDS011;13773;48.868;10.730;2023-06-14T13:36:20;5.07;;;3.60;;
25982;SDS011;13773;48.868;10.730;2023-06-14T13:38:46;5.27;;;3.40;;
25982;SDS011;13773;48.868;10.730;2023-06-14T13:41:11;4.07;;;3.10;;
25982;SDS011;13773;48.868;10.730;2023-06-14T13:43:37;3.60;;;3.30;;
25982;SDS011;13773;48.868;10.730;2023-06-14T13:46:03;3.77;;;2.70;;
25982;SDS011;13773;48.868;10.730;2023-06-14T13:48:29;3.33;;;3.03;;
25982;SDS011;13773;48.868;10.730;2023-06-14T13:50:55;3.33;;;2.87;;
25982;SDS011;13773;48.868;10.730;2023-06-14T13:53:22;5.60;;;3.67;;
25982;SDS011;13773;48.868;10.730;2023-06-14T13:55:48;3.67;;;3.33;;
25982;SDS011;13773;48.868;10.730;2023-06-14T13:58:13;3.43;;;3.13;;
25982;SDS011;13773;48.868;10.730;2023-06-14T14:00:40;3.40;;;3.10;;
25982;SDS011;13773;48.868;10.730;2023-06-14T14:03:06;4.73;;;3.50;;
25982;SDS011;13773;48.868;10.730;2023-06-14T14:05:32;4.37;;;3.53;;
25982;SDS011;13773;48.868;10.730;2023-06-14T14:07:57;3.50;;;3.20;;
25982;SDS011;13773;48.868;10.730;2023-06-14T14:10:26;4.73;;;3.20;;
25982;SDS011;13773;48.868;10.730;2023-06-14T14:12:52;5.17;;;3.10;;
25982;SDS011;13773;48.868;10.730;2023-06-14T14:15:18;3.30;;;3.00;;
25982;SDS011;13773;48.868;10.730;2023-06-14T14:17:44;4.50;;;3.17;;
25982;SDS011;13773;48.868;10.730;2023-06-14T14:20:10;5.83;;;3.20;;
25982;SDS011;13773;48.868;10.730;2023-06-14T14:22:41;4.07;;;3.33;;
25982;SDS011;13773;48.868;10.730;2023-06-14T14:25:07;5.40;;;3.30;;
25982;SDS011;13773;48.868;10.730;2023-06-14T14:27:34;3.43;;;3.03;;
25982;SDS011;13773;48.868;10.730;2023-06-14T14:29:59;3.67;;;3.27;;
25982;SDS011;13773;48.868;10.730;2023-06-14T14:32:25;3.90;;;3.50;;
25982;SDS011;13773;48.868;10.730;2023-06-14T14:34:51;3.57;;;3.27;;
25982;SDS011;13773;48.868;10.730;2023-06-14T14:37:16;5.07;;;3.17;;
25982;SDS011;13773;48.868;10.730;2023-06-14T14:39:43;3.40;;;3.10;;
25982;SDS011;13773;48.868;10.730;2023-06-14T14:42:10;3.80;;;3.17;;
25982;SDS011;13773;48.868;10.730;2023-06-14T14:44:37;3.30;;;3.00;;
25982;SDS011;13773;48.868;10.730;2023-06-14T14:47:04;4.07;;;3.33;;
25982;SDS011;13773;48.868;10.730;2023-06-14T14:49:33;5.73;;;3.47;;
25982;SDS011;13773;48.868;10.730;2023-06-14T14:51:59;6.07;;;3.10;;
25982;SDS011;13773;48.868;10.730;2023-06-14T14:54:24;3.57;;;3.00;;
25982;SDS011;13773;48.868;10.730;2023-06-14T14:56:51;4.33;;;3.93;;
25982;SDS011;13773;48.868;10.730;2023-06-14T14:59:17;4.13;;;3.40;;
25982;SDS011;13773;48.868;10.730;2023-06-14T15:01:43;5.80;;;3.13;;
25982;SDS011;13773;48.868;10.730;2023-06-14T15:04:10;5.80;;;3.27;;